Time;durP1;ratioP1;P1;durP2;ratioP2;P2;SDS_P1;SDS_P2;PMS_P1;PMS_P2;Temp;Humidity;BMP_temperature;BMP_pressure;BME280_temperature;BME280_humidity;BME280_pressure;Samples;Min_cycle;Max_cycle;Signal;HPM_P1;HPM_P2
2023/09/22 00:00:43;;;;;;;4.47;1.30;;;;;;;;;;4972505;28;20046;-82
2023/09/22 00:03:09;;;;;;;6.72;1.40;;;;;;;;;;4971389;28;20088;-80
2023/09/22 00:05:35;;;;;;;4.38;1.20;;;;;;;;;;4972290;28;20030;-80
2023/09/22 00:08:01;;;;;;;4.43;1.30;;;;;;;;;;4971779;28;20397;-80
2023/09/22 00:10:26;;;;;;;8.48;1.50;;;;;;;;;;4971645;28;20542;-79
2023/09/22 00:12:54;;;;;;;5.10;1.30;;;;;;;;;;4971823;28;20034;-80
2023/09/22 00:15:20;;;;;;;3.17;1.20;;;;;;;;;;4972524;28;20034;-81
2023/09/22 00:17:45;;;;;;;4.75;1.30;;;;;;;;;;4983562;28;20023;-80
2023/09/22 00:20:14;;;;;;;5.43;1.13;;;;;;;;;;4972166;28;20069;-80
2023/09/22 00:22:39;;;;;;;4.95;1.45;;;;;;;;;;4971850;28;20034;-80
2023/09/22 00:25:05;;;;;;;4.82;1.20;;;;;;;;;;4971554;28;20026;-79
2023/09/22 00:27:31;;;;;;;4.50;1.40;;;;;;;;;;4958780;28;20396;-80
2023/09/22 00:29:56;;;;;;;3.58;1.15;;;;;;;;;;4992530;28;20069;-81
2023/09/22 00:32:21;;;;;;;5.88;1.70;;;;;;;;;;4976803;28;20085;-79
2023/09/22 00:34:47;;;;;;;6.28;1.20;;;;;;;;;;4969234;28;20054;-80
2023/09/22 00:37:13;;;;;;;3.90;1.17;;;;;;;;;;4972747;28;20054;-78
2023/09/22 00:39:38;;;;;;;5.20;1.30;;;;;;;;;;4970127;28;20074;-80
2023/09/22 00:42:08;;;;;;;4.82;1.20;;;;;;;;;;4970233;28;20573;-80
2023/09/22 00:44:33;;;;;;;5.65;1.20;;;;;;;;;;4968677;28;20054;-79
2023/09/22 00:47:01;;;;;;;5.20;1.40;;;;;;;;;;4982160;28;20085;-81
2023/09/22 00:49:27;;;;;;;3.90;1.33;;;;;;;;;;4972005;28;20019;-82
2023/09/22 00:51:53;;;;;;;2.80;1.13;;;;;;;;;;4958702;28;20117;-80
2023/09/22 00:54:19;;;;;;;5.88;1.20;;;;;;;;;;4970582;28;20680;-81
2023/09/22 00:56:45;;;;;;;4.78;1.20;;;;;;;;;;4961818;28;20031;-82
2023/09/22 00:59:12;;;;;;;3.45;1.23;;;;;;;;;;4961424;28;20036;-80
2023/09/22 01:01:37;;;;;;;4.45;1.10;;;;;;;;;;4972194;28;20631;-79
2023/09/22 01:04:03;;;;;;;4.70;1.15;;;;;;;;;;4975744;28;20038;-79
2023/09/22 01:06:29;;;;;;;5.80;1.27;;;;;;;;;;4975469;28;20027;-80
2023/09/22 01:08:56;;;;;;;7.57;1.17;;;;;;;;;;4970863;28;20034;-81
2023/09/22 01:11:21;;;;;;;4.78;1.20;;;;;;;;;;4971462;28;20580;-80
2023/09/22 01:13:47;;;;;;;4.13;1.10;;;;;;;;;;4970922;28;20034;-80
2023/09/22 01:16:12;;;;;;;4.32;1.10;;;;;;;;;;4970809;28;20031;-79
2023/09/22 01:18:37;;;;;;;4.80;1.77;;;;;;;;;;4973826;28;20034;-80
2023/09/22 01:21:03;;;;;;;6.97;1.52;;;;;;;;;;4970966;28;20530;-80
2023/09/22 01:23:29;;;;;;;5.43;1.35;;;;;;;;;;4970535;28;20042;-79
2023/09/22 01:25:54;;;;;;;5.32;1.20;;;;;;;;;;4965627;28;20085;-79
2023/09/22 01:28:20;;;;;;;4.15;1.20;;;;;;;;;;4958643;28;20043;-79
2023/09/22 01:30:45;;;;;;;7.25;1.40;;;;;;;;;;4969530;28;20043;-79
2023/09/22 01:33:11;;;;;;;5.38;1.10;;;;;;;;;;4977750;28;20057;-79
2023/09/22 01:35:36;;;;;;;4.25;1.17;;;;;;;;;;4970489;28;20058;-80
2023/09/22 01:38:14;;;;;;;3.97;1.05;;;;;;;;;;4972335;28;20023;-80
2023/09/22 01:40:40;;;;;;;5.68;1.10;;;;;;;;;;4972421;28;20031;-79
2023/09/22 01:43:06;;;;;;;7.60;1.20;;;;;;;;;;4970365;28;20512;-80
2023/09/22 01:45:31;;;;;;;7.35;1.30;;;;;;;;;;4969128;28;20035;-80
2023/09/22 01:47:56;;;;;;;5.18;1.40;;;;;;;;;;4968805;28;20038;-79
2023/09/22 01:50:22;;;;;;;3.00;1.13;;;;;;;;;;4968537;28;20052;-79
2023/09/22 01:52:47;;;;;;;7.30;1.25;;;;;;;;;;4968373;28;20076;-79
2023/09/22 01:55:12;;;;;;;6.90;1.48;;;;;;;;;;4969402;28;20027;-79
2023/09/22 01:57:38;;;;;;;5.05;1.20;;;;;;;;;;4965874;28;20031;-79
2023/09/22 02:00:07;;;;;;;5.53;1.20;;;;;;;;;;4968487;28;20062;-80
2023/09/22 02:02:34;;;;;;;6.13;1.30;;;;;;;;;;4975900;28;20022;-80
2023/09/22 02:04:59;;;;;;;6.18;1.30;;;;;;;;;;4975645;28;20038;-80
2023/09/22 02:07:26;;;;;;;4.25;1.17;;;;;;;;;;4967405;28;20026;-80
2023/09/22 02:09:51;;;;;;;7.57;1.33;;;;;;;;;;4973028;28;20037;-84
2023/09/22 02:12:17;;;;;;;7.45;1.40;;;;;;;;;;4975059;28;20223;-79
2023/09/22 02:14:42;;;;;;;6.75;1.38;;;;;;;;;;4971102;28;20042;-80
2023/09/22 02:17:07;;;;;;;5.75;1.23;;;;;;;;;;4974202;28;20031;-78
2023/09/22 02:19:38;;;;;;;4.70;1.38;;;;;;;;;;4975052;28;20038;-81
2023/09/22 02:22:03;;;;;;;6.20;1.30;;;;;;;;;;4972179;28;20027;-80
2023/09/22 02:24:28;;;;;;;3.95;1.40;;;;;;;;;;4973357;28;20101;-80
2023/09/22 02:26:54;;;;;;;4.82;1.38;;;;;;;;;;4970140;28;20118;-81
2023/09/22 02:29:19;;;;;;;4.85;1.42;;;;;;;;;;4962208;28;20122;-79
2023/09/22 02:31:44;;;;;;;6.32;1.40;;;;;;;;;;4965272;28;20116;-80
2023/09/22 02:34:10;;;;;;;8.80;1.35;;;;;;;;;;4970014;28;20019;-80
2023/09/22 02:36:35;;;;;;;4.88;1.33;;;;;;;;;;4969220;28;20034;-79
2023/09/22 02:39:00;;;;;;;7.03;1.50;;;;;;;;;;4966550;28;20037;-79
2023/09/22 02:41:26;;;;;;;7.80;1.33;;;;;;;;;;4970878;28;20034;-80
2023/09/22 02:43:51;;;;;;;7.20;1.40;;;;;;;;;;4969577;28;20046;-81
2023/09/22 02:46:17;;;;;;;4.85;1.35;;;;;;;;;;4965839;28;20034;-79
2023/09/22 02:48:42;;;;;;;6.75;1.75;;;;;;;;;;4967853;28;20495;-80
2023/09/22 02:51:08;;;;;;;5.90;1.42;;;;;;;;;;4968475;28;20023;-79
2023/09/22 02:53:34;;;;;;;5.35;1.40;;;;;;;;;;4968004;28;20034;-79
2023/09/22 02:56:05;;;;;;;6.53;1.80;;;;;;;;;;4967816;28;20034;-79
2023/09/22 02:58:32;;;;;;;3.75;1.25;;;;;;;;;;4965863;28;20022;-82
2023/09/22 03:00:58;;;;;;;9.32;1.70;;;;;;;;;;4962107;28;20031;-81
2023/09/22 03:03:23;;;;;;;9.02;1.63;;;;;;;;;;4968514;28;20035;-79
2023/09/22 03:05:48;;;;;;;6.70;1.45;;;;;;;;;;4980412;28;20048;-80
2023/09/22 03:08:14;;;;;;;4.75;1.30;;;;;;;;;;4971590;28;20061;-80
2023/09/22 03:10:39;;;;;;;6.13;1.70;;;;;;;;;;4973338;28;20029;-80
2023/09/22 03:13:05;;;;;;;9.32;1.60;;;;;;;;;;4972260;28;20038;-80
2023/09/22 03:15:30;;;;;;;6.50;1.63;;;;;;;;;;4972769;28;20027;-84
2023/09/22 03:17:57;;;;;;;4.45;1.20;;;;;;;;;;4964674;28;20027;-79
2023/09/22 03:20:22;;;;;;;5.30;1.40;;;;;;;;;;4969614;28;20037;-80
2023/09/22 03:22:47;;;;;;;7.75;1.77;;;;;;;;;;4973772;28;20039;-80
2023/09/22 03:25:14;;;;;;;5.82;1.65;;;;;;;;;;4974032;28;20023;-80
2023/09/22 03:27:40;;;;;;;6.88;1.60;;;;;;;;;;4960420;28;20133;-80
2023/09/22 03:30:07;;;;;;;6.88;1.58;;;;;;;;;;4960190;28;20119;-79
2023/09/22 03:32:33;;;;;;;6.63;1.75;;;;;;;;;;4956231;28;20579;-80
2023/09/22 03:34:59;;;;;;;7.18;1.70;;;;;;;;;;4964248;28;20031;-81
2023/09/22 03:37:29;;;;;;;6.35;1.58;;;;;;;;;;4972787;28;20485;-79
2023/09/22 03:39:55;;;;;;;8.23;1.80;;;;;;;;;;4972395;28;20058;-79
2023/09/22 03:42:20;;;;;;;8.88;1.77;;;;;;;;;;4963473;28;20053;-80
2023/09/22 03:44:46;;;;;;;5.68;1.60;;;;;;;;;;4964466;28;20046;-80
2023/09/22 03:47:12;;;;;;;7.85;1.83;;;;;;;;;;4972768;28;20553;-80
2023/09/22 03:49:38;;;;;;;5.25;1.88;;;;;;;;;;4972450;28;20102;-80
2023/09/22 03:52:04;;;;;;;8.88;1.77;;;;;;;;;;4972345;28;20023;-80
2023/09/22 03:54:29;;;;;;;9.52;1.70;;;;;;;;;;4972145;28;20027;-80
2023/09/22 03:56:56;;;;;;;7.18;1.83;;;;;;;;;;4971206;28;20588;-80
2023/09/22 03:59:21;;;;;;;7.75;1.80;;;;;;;;;;4980501;28;20049;-80
2023/09/22 04:01:46;;;;;;;9.95;1.90;;;;;;;;;;4966340;28;20479;-79
2023/09/22 04:04:12;;;;;;;5.97;2.00;;;;;;;;;;4967243;28;20031;-82
2023/09/22 04:06:38;;;;;;;12.02;2.50;;;;;;;;;;4972450;28;20031;-79
2023/09/22 04:09:03;;;;;;;6.20;2.10;;;;;;;;;;4968239;28;20035;-79
2023/09/22 04:11:29;;;;;;;10.18;2.08;;;;;;;;;;4971299;28;20066;-80
2023/09/22 04:13:54;;;;;;;7.40;2.03;;;;;;;;;;4969995;28;20042;-80
2023/09/22 04:16:19;;;;;;;9.77;2.33;;;;;;;;;;4971350;28;20058;-79
2023/09/22 04:18:45;;;;;;;7.90;2.20;;;;;;;;;;4979023;28;20427;-79
2023/09/22 04:21:12;;;;;;;15.15;2.30;;;;;;;;;;4971918;28;20034;-80
2023/09/22 04:23:45;;;;;;;8.38;2.28;;;;;;;;;;4971091;28;20480;-79
2023/09/22 04:26:11;;;;;;;9.30;2.13;;;;;;;;;;4972085;28;20027;-79
2023/09/22 04:28:36;;;;;;;7.22;2.13;;;;;;;;;;4974550;28;20347;-80
2023/09/22 04:31:02;;;;;;;7.57;2.22;;;;;;;;;;4971450;28;20034;-80
2023/09/22 04:33:28;;;;;;;4.95;1.90;;;;;;;;;;4972423;28;20113;-80
2023/09/22 04:35:53;;;;;;;7.45;2.65;;;;;;;;;;4965760;28;20039;-79
2023/09/22 04:38:18;;;;;;;10.77;2.17;;;;;;;;;;4969370;28;20039;-80
2023/09/22 04:40:45;;;;;;;6.40;1.90;;;;;;;;;;4975344;28;20034;-79
2023/09/22 04:43:13;;;;;;;9.10;2.70;;;;;;;;;;4972098;28;20049;-80
2023/09/22 04:45:40;;;;;;;6.97;2.00;;;;;;;;;;4971290;28;20050;-80
2023/09/22 04:48:10;;;;;;;7.53;2.10;;;;;;;;;;4971034;28;20125;-80
2023/09/22 04:50:37;;;;;;;5.60;1.80;;;;;;;;;;4969799;28;20031;-81
2023/09/22 04:53:04;;;;;;;6.47;1.88;;;;;;;;;;4973128;28;20536;-79
2023/09/22 04:55:34;;;;;;;7.80;1.92;;;;;;;;;;4971490;28;20030;-81
2023/09/22 04:58:00;;;;;;;4.65;1.77;;;;;;;;;;4971075;28;20023;-80
2023/09/22 05:00:27;;;;;;;4.68;1.65;;;;;;;;;;4971125;28;20043;-86
2023/09/22 05:02:52;;;;;;;10.13;2.00;;;;;;;;;;4971582;28;20026;-79
2023/09/22 05:05:19;;;;;;;8.93;1.90;;;;;;;;;;4968357;28;20031;-81
2023/09/22 05:07:45;;;;;;;6.55;2.13;;;;;;;;;;4961718;28;20059;-80
2023/09/22 05:10:11;;;;;;;6.15;1.75;;;;;;;;;;4970506;28;20058;-79
2023/09/22 05:12:37;;;;;;;8.32;2.28;;;;;;;;;;4969988;28;20035;-81
2023/09/22 05:15:03;;;;;;;7.13;2.17;;;;;;;;;;4971406;28;20026;-84
2023/09/22 05:17:29;;;;;;;8.02;2.00;;;;;;;;;;4970477;28;20046;-81
2023/09/22 05:19:54;;;;;;;6.88;1.80;;;;;;;;;;4960468;28;20138;-80
2023/09/22 05:22:22;;;;;;;9.38;1.80;;;;;;;;;;4957127;28;20082;-82
2023/09/22 05:24:48;;;;;;;8.82;2.00;;;;;;;;;;4967649;28;20035;-82
2023/09/22 05:27:14;;;;;;;8.73;2.08;;;;;;;;;;4969956;28;20050;-80
2023/09/22 05:29:41;;;;;;;8.50;2.30;;;;;;;;;;4964094;28;20117;-78
2023/09/22 05:32:07;;;;;;;10.82;2.00;;;;;;;;;;4960662;28;21002;-79
2023/09/22 05:34:33;;;;;;;7.90;1.75;;;;;;;;;;4962853;28;20399;-79
2023/09/22 05:37:00;;;;;;;5.18;1.75;;;;;;;;;;4966497;28;20030;-82
2023/09/22 05:39:25;;;;;;;11.00;1.90;;;;;;;;;;4969065;28;20174;-82
2023/09/22 05:41:51;;;;;;;8.48;1.60;;;;;;;;;;4967896;28;20023;-80
2023/09/22 05:44:17;;;;;;;5.55;1.80;;;;;;;;;;4977103;28;20046;-80
2023/09/22 05:46:43;;;;;;;4.38;1.60;;;;;;;;;;4970701;28;20052;-80
2023/09/22 05:49:08;;;;;;;12.15;1.80;;;;;;;;;;4969993;28;20509;-78
2023/09/22 05:51:35;;;;;;;8.82;1.70;;;;;;;;;;4969941;28;20369;-78
2023/09/22 05:54:00;;;;;;;7.75;2.00;;;;;;;;;;4968972;28;20047;-79
2023/09/22 05:56:25;;;;;;;10.68;2.28;;;;;;;;;;4965945;28;20022;-81
2023/09/22 05:58:51;;;;;;;8.23;2.38;;;;;;;;;;4968139;28;20432;-78
2023/09/22 06:01:17;;;;;;;6.63;2.10;;;;;;;;;;4961474;28;20070;-81
2023/09/22 06:03:44;;;;;;;8.63;2.00;;;;;;;;;;4959505;28;20038;-77
2023/09/22 06:06:11;;;;;;;10.13;2.08;;;;;;;;;;4957480;28;20311;-78
2023/09/22 06:08:38;;;;;;;7.82;2.30;;;;;;;;;;4958312;28;20038;-80
2023/09/22 06:11:08;;;;;;;7.82;2.20;;;;;;;;;;4959369;28;20030;-79
2023/09/22 06:13:34;;;;;;;10.30;2.72;;;;;;;;;;4963399;28;20327;-79
2023/09/22 06:16:00;;;;;;;7.47;2.30;;;;;;;;;;4954944;28;20035;-77
2023/09/22 06:18:26;;;;;;;7.97;2.28;;;;;;;;;;4963048;28;20034;-77
2023/09/22 06:20:58;;;;;;;10.27;2.38;;;;;;;;;;4961705;28;20091;-76
2023/09/22 06:23:25;;;;;;;11.43;2.42;;;;;;;;;;4963605;28;20516;-81
2023/09/22 06:25:52;;;;;;;10.70;2.20;;;;;;;;;;4967080;28;20034;-78
2023/09/22 06:28:18;;;;;;;9.15;2.08;;;;;;;;;;4960774;28;20049;-78
2023/09/22 06:30:46;;;;;;;7.38;2.20;;;;;;;;;;4962927;28;20030;-78
2023/09/22 06:33:13;;;;;;;9.57;2.10;;;;;;;;;;4957435;28;20101;-79
2023/09/22 06:35:39;;;;;;;8.82;1.92;;;;;;;;;;4964030;28;20110;-82
2023/09/22 06:38:06;;;;;;;10.45;2.65;;;;;;;;;;4964917;28;20082;-82
2023/09/22 06:40:35;;;;;;;14.18;3.58;;;;;;;;;;4956105;28;20019;-80
2023/09/22 06:43:00;;;;;;;8.82;2.17;;;;;;;;;;4959606;28;20031;-81
2023/09/22 06:45:25;;;;;;;8.50;1.92;;;;;;;;;;4963446;28;20058;-79
2023/09/22 06:47:51;;;;;;;6.00;1.85;;;;;;;;;;4969894;28;20052;-81
2023/09/22 06:50:17;;;;;;;9.93;2.50;;;;;;;;;;4966167;28;20071;-80
2023/09/22 06:52:43;;;;;;;11.10;2.45;;;;;;;;;;4969672;28;20035;-79
2023/09/22 06:55:13;;;;;;;6.80;2.42;;;;;;;;;;4968402;28;20074;-80
2023/09/22 06:57:42;;;;;;;9.75;2.63;;;;;;;;;;4964605;28;20499;-80
2023/09/22 07:00:15;;;;;;;5.22;1.90;;;;;;;;;;4961542;28;20094;-80
2023/09/22 07:02:40;;;;;;;7.68;1.67;;;;;;;;;;4966262;28;20255;-80
2023/09/22 07:05:06;;;;;;;8.30;2.20;;;;;;;;;;4966711;28;20456;-78
2023/09/22 07:07:32;;;;;;;7.60;2.05;;;;;;;;;;4966730;28;20031;-79
2023/09/22 07:09:57;;;;;;;7.88;1.90;;;;;;;;;;4966041;28;20029;-80
2023/09/22 07:12:23;;;;;;;11.75;1.98;;;;;;;;;;4966918;28;20027;-78
2023/09/22 07:14:51;;;;;;;11.73;2.00;;;;;;;;;;4965124;28;20250;-79
2023/09/22 07:17:17;;;;;;;7.57;2.10;;;;;;;;;;4963294;28;20487;-77
2023/09/22 07:19:43;;;;;;;5.85;2.28;;;;;;;;;;4963750;28;20057;-78
2023/09/22 07:22:09;;;;;;;13.45;2.33;;;;;;;;;;4970566;28;20019;-79
2023/09/22 07:24:34;;;;;;;7.00;1.90;;;;;;;;;;4966710;28;20028;-77
2023/09/22 07:27:00;;;;;;;9.32;2.13;;;;;;;;;;4962763;28;20026;-76
2023/09/22 07:29:25;;;;;;;7.32;2.00;;;;;;;;;;4963975;28;20034;-78
2023/09/22 07:31:50;;;;;;;10.95;1.90;;;;;;;;;;4964806;28;20033;-78
2023/09/22 07:34:16;;;;;;;6.97;1.73;;;;;;;;;;4964215;28;20037;-78
2023/09/22 07:36:41;;;;;;;6.68;1.80;;;;;;;;;;4964662;28;20035;-79
2023/09/22 07:39:09;;;;;;;8.30;2.20;;;;;;;;;;4965368;28;20029;-81
2023/09/22 07:41:35;;;;;;;10.10;2.13;;;;;;;;;;4968043;28;20069;-78
2023/09/22 07:44:03;;;;;;;5.78;1.60;;;;;;;;;;4963334;28;20047;-79
2023/09/22 07:46:29;;;;;;;6.78;1.80;;;;;;;;;;4964091;28;20038;-79
2023/09/22 07:48:54;;;;;;;6.03;1.70;;;;;;;;;;4980842;28;20023;-78
2023/09/22 07:51:20;;;;;;;8.02;1.70;;;;;;;;;;4970409;28;20070;-78
2023/09/22 07:53:46;;;;;;;8.27;1.65;;;;;;;;;;4964768;28;20034;-79
2023/09/22 07:56:12;;;;;;;6.65;1.60;;;;;;;;;;4958857;28;20059;-77
2023/09/22 07:58:41;;;;;;;9.35;1.80;;;;;;;;;;4966942;28;20210;-79
2023/09/22 08:01:07;;;;;;;8.57;1.95;;;;;;;;;;4967012;28;20223;-79
2023/09/22 08:03:35;;;;;;;5.88;1.60;;;;;;;;;;4963812;28;20038;-80
2023/09/22 08:06:04;;;;;;;7.43;1.70;;;;;;;;;;4959707;28;20035;-81
2023/09/22 08:08:30;;;;;;;7.65;1.60;;;;;;;;;;4962959;28;20031;-80
2023/09/22 08:10:56;;;;;;;5.80;1.67;;;;;;;;;;4963599;28;20031;-78
2023/09/22 08:13:22;;;;;;;6.28;1.70;;;;;;;;;;4960847;28;20038;-79
2023/09/22 08:15:48;;;;;;;9.00;1.90;;;;;;;;;;4962238;28;20035;-78
2023/09/22 08:18:13;;;;;;;8.55;1.80;;;;;;;;;;4975611;28;20022;-79
2023/09/22 08:20:39;;;;;;;8.35;1.83;;;;;;;;;;4966646;28;20042;-77
2023/09/22 08:23:05;;;;;;;7.85;1.60;;;;;;;;;;4964141;28;20094;-81
2023/09/22 08:25:30;;;;;;;7.45;1.45;;;;;;;;;;4961780;28;20064;-78
2023/09/22 08:27:57;;;;;;;6.43;1.70;;;;;;;;;;4963975;28;20335;-79
2023/09/22 08:30:24;;;;;;;9.25;1.80;;;;;;;;;;4961999;28;20098;-79
2023/09/22 08:32:49;;;;;;;6.63;1.50;;;;;;;;;;4963007;28;20023;-79
2023/09/22 08:35:18;;;;;;;7.18;1.65;;;;;;;;;;4965269;28;20035;-77
2023/09/22 08:37:44;;;;;;;7.25;1.63;;;;;;;;;;4961896;28;20031;-79
2023/09/22 08:40:17;;;;;;;10.75;2.95;;;;;;;;;;4961610;28;20034;-80
2023/09/22 08:42:44;;;;;;;7.85;1.55;;;;;;;;;;4970396;28;20227;-78
2023/09/22 08:45:10;;;;;;;8.50;1.63;;;;;;;;;;4970129;28;20092;-79
2023/09/22 08:47:41;;;;;;;6.20;1.38;;;;;;;;;;4964314;28;20105;-79
2023/09/22 08:50:11;;;;;;;6.13;1.40;;;;;;;;;;4972780;28;20030;-74
2023/09/22 08:52:39;;;;;;;5.40;1.35;;;;;;;;;;4980798;28;20037;-79
2023/09/22 08:55:16;;;;;;;6.63;1.90;;;;;;;;;;4981790;28;20078;-82
2023/09/22 08:57:46;;;;;;;7.10;1.60;;;;;;;;;;4980925;28;20358;-78
2023/09/22 09:00:19;;;;;;;7.55;1.55;;;;;;;;;;4982074;28;20134;-81
2023/09/22 09:02:46;;;;;;;3.72;1.30;;;;;;;;;;4970123;28;20065;-80
2023/09/22 09:05:29;;;;;;;4.15;1.30;;;;;;;;;;4976311;28;20035;-80
2023/09/22 09:08:15;;;;;;;6.43;1.30;;;;;;;;;;4977322;28;20096;-79
2023/09/22 09:10:43;;;;;;;5.28;1.40;;;;;;;;;;4980484;28;20034;-80
2023/09/22 09:13:13;;;;;;;3.22;1.17;;;;;;;;;;4982194;28;20038;-80
2023/09/22 09:15:45;;;;;;;3.13;1.20;;;;;;;;;;4976980;28;21089;-81
2023/09/22 09:18:16;;;;;;;2.83;1.08;;;;;;;;;;4981990;28;20349;-79
2023/09/22 09:20:43;;;;;;;4.40;0.98;;;;;;;;;;4981956;28;20018;-80
2023/09/22 09:23:17;;;;;;;3.00;1.00;;;;;;;;;;4981760;28;20029;-80
2023/09/22 09:25:52;;;;;;;6.03;1.20;;;;;;;;;;4980392;28;20327;-81
2023/09/22 09:28:21;;;;;;;3.80;1.00;;;;;;;;;;4981950;28;20022;-81
2023/09/22 09:30:50;;;;;;;4.25;1.20;;;;;;;;;;4981794;28;20070;-80
2023/09/22 09:33:16;;;;;;;3.00;1.17;;;;;;;;;;4981986;28;20150;-79
2023/09/22 09:35:42;;;;;;;3.17;0.95;;;;;;;;;;4976824;28;20442;-80
2023/09/22 09:38:10;;;;;;;3.20;1.00;;;;;;;;;;4971320;28;20270;-78
2023/09/22 09:40:39;;;;;;;3.20;0.90;;;;;;;;;;4981794;28;20038;-76
2023/09/22 09:43:12;;;;;;;1.90;0.95;;;;;;;;;;4980892;28;20031;-77
2023/09/22 09:45:46;;;;;;;2.30;1.00;;;;;;;;;;4973947;28;20045;-77
2023/09/22 09:48:18;;;;;;;3.38;1.08;;;;;;;;;;4970338;28;20065;-77
2023/09/22 09:50:47;;;;;;;2.55;1.02;;;;;;;;;;4969376;28;20053;-77
2023/09/22 09:53:26;;;;;;;1.77;0.80;;;;;;;;;;4964150;28;20037;-75
2023/09/22 09:55:58;;;;;;;2.63;0.68;;;;;;;;;;4969961;28;20070;-76
2023/09/22 09:58:27;;;;;;;2.10;0.70;;;;;;;;;;4969784;28;20030;-76
2023/09/22 10:00:53;;;;;;;0.73;0.60;;;;;;;;;;4970161;28;20530;-76
2023/09/22 10:03:20;;;;;;;1.95;0.60;;;;;;;;;;4970070;28;20034;-77
2023/09/22 10:05:49;;;;;;;0.60;0.60;;;;;;;;;;4963793;28;20050;-79
2023/09/22 10:08:14;;;;;;;2.38;0.73;;;;;;;;;;4963907;28;20041;-76
2023/09/22 10:10:40;;;;;;;1.25;0.63;;;;;;;;;;4969027;28;20027;-77
2023/09/22 10:13:07;;;;;;;1.25;0.70;;;;;;;;;;4970124;28;20038;-77
2023/09/22 10:15:54;;;;;;;1.52;0.80;;;;;;;;;;4969960;28;20021;-76
2023/09/22 10:18:21;;;;;;;0.95;0.60;;;;;;;;;;4969848;28;20026;-77
2023/09/22 10:20:47;;;;;;;1.67;0.75;;;;;;;;;;4972472;28;20057;-77
2023/09/22 10:23:25;;;;;;;0.90;0.70;;;;;;;;;;4975880;28;20037;-76
2023/09/22 10:26:20;;;;;;;2.10;0.93;;;;;;;;;;4976739;28;20070;-77
2023/09/22 10:28:45;;;;;;;0.70;0.70;;;;;;;;;;4967843;28;20043;-74
2023/09/22 10:31:10;;;;;;;1.10;0.70;;;;;;;;;;4976624;28;20680;-77
2023/09/22 10:33:36;;;;;;;1.40;0.80;;;;;;;;;;4976018;28;20035;-77
2023/09/22 10:36:04;;;;;;;1.15;0.70;;;;;;;;;;4970120;28;20018;-77
2023/09/22 10:38:29;;;;;;;0.68;0.60;;;;;;;;;;4969663;28;20033;-77
2023/09/22 10:41:01;;;;;;;1.38;0.80;;;;;;;;;;4976408;28;20034;-76
2023/09/22 10:43:27;;;;;;;1.55;0.90;;;;;;;;;;4976213;28;20042;-78
2023/09/22 10:45:53;;;;;;;1.58;0.80;;;;;;;;;;4976210;28;20603;-77
2023/09/22 10:48:19;;;;;;;1.05;0.80;;;;;;;;;;4976321;28;20395;-77
2023/09/22 10:50:52;;;;;;;1.10;0.90;;;;;;;;;;4976260;28;20022;-79
2023/09/22 10:53:18;;;;;;;1.65;0.90;;;;;;;;;;4973889;28;20431;-77
2023/09/22 10:55:45;;;;;;;1.63;0.80;;;;;;;;;;4976127;28;20022;-77
2023/09/22 10:58:16;;;;;;;2.72;0.90;;;;;;;;;;4975957;28;20031;-77
2023/09/22 11:00:55;;;;;;;2.38;0.90;;;;;;;;;;4976478;28;20022;-78
2023/09/22 11:03:20;;;;;;;1.80;1.00;;;;;;;;;;4976212;28;20086;-76
2023/09/22 11:05:59;;;;;;;2.05;1.00;;;;;;;;;;4964476;28;20083;-77
2023/09/22 11:08:24;;;;;;;1.20;0.82;;;;;;;;;;4962566;28;20114;-77
2023/09/22 11:10:52;;;;;;;2.55;1.00;;;;;;;;;;4976179;28;20118;-80
2023/09/22 11:13:18;;;;;;;1.55;0.90;;;;;;;;;;4975706;28;20031;-77
2023/09/22 11:15:51;;;;;;;2.13;0.90;;;;;;;;;;4975931;28;20031;-77
2023/09/22 11:18:22;;;;;;;1.52;0.80;;;;;;;;;;4975949;28;20023;-77
2023/09/22 11:20:48;;;;;;;1.85;0.93;;;;;;;;;;4975892;28;20027;-77
2023/09/22 11:23:15;;;;;;;2.33;0.88;;;;;;;;;;4975697;28;20302;-77
2023/09/22 11:25:40;;;;;;;1.73;0.80;;;;;;;;;;4975920;28;20106;-78
2023/09/22 11:28:06;;;;;;;3.00;0.98;;;;;;;;;;4975945;28;20268;-78
2023/09/22 11:30:33;;;;;;;1.63;0.90;;;;;;;;;;4975576;28;20494;-78
2023/09/22 11:33:00;;;;;;;1.60;0.90;;;;;;;;;;4972771;28;20027;-78
2023/09/22 11:35:39;;;;;;;1.55;0.80;;;;;;;;;;4966583;28;20035;-78
2023/09/22 11:38:27;;;;;;;1.77;0.90;;;;;;;;;;4966484;28;20031;-77
2023/09/22 11:41:15;;;;;;;1.88;0.80;;;;;;;;;;4972843;28;20027;-78
2023/09/22 11:43:45;;;;;;;1.40;0.80;;;;;;;;;;4972380;28;20043;-78
2023/09/22 11:46:31;;;;;;;1.25;0.77;;;;;;;;;;4972776;28;20027;-77
2023/09/22 11:48:59;;;;;;;1.52;0.82;;;;;;;;;;4972256;28;20085;-77
2023/09/22 11:51:48;;;;;;;1.92;0.95;;;;;;;;;;4972775;28;20487;-77
2023/09/22 11:54:22;;;;;;;1.40;0.90;;;;;;;;;;4973847;28;20066;-76
2023/09/22 11:56:49;;;;;;;3.27;0.90;;;;;;;;;;4969158;28;20029;-78
2023/09/22 11:59:19;;;;;;;2.20;0.90;;;;;;;;;;4972409;28;20058;-77
2023/09/22 12:01:46;;;;;;;1.92;0.90;;;;;;;;;;4972572;28;20078;-76
2023/09/22 12:04:12;;;;;;;1.88;0.90;;;;;;;;;;4971010;28;20023;-76
2023/09/22 12:06:40;;;;;;;2.83;1.00;;;;;;;;;;4960269;28;20519;-75
2023/09/22 12:09:06;;;;;;;0.85;0.73;;;;;;;;;;4964694;28;20030;-76
2023/09/22 12:11:32;;;;;;;1.38;0.80;;;;;;;;;;4972565;28;20326;-76
2023/09/22 12:13:58;;;;;;;1.23;0.88;;;;;;;;;;4972139;28;20038;-77
2023/09/22 12:16:24;;;;;;;1.73;0.88;;;;;;;;;;4972269;28;20053;-76
2023/09/22 12:18:50;;;;;;;1.35;0.80;;;;;;;;;;4972012;28;20499;-75
2023/09/22 12:21:15;;;;;;;1.42;0.80;;;;;;;;;;4972282;28;20034;-76
2023/09/22 12:23:40;;;;;;;1.83;0.80;;;;;;;;;;4971675;28;20517;-75
2023/09/22 12:26:06;;;;;;;2.88;0.88;;;;;;;;;;4972049;28;20027;-76
2023/09/22 12:28:32;;;;;;;2.30;0.80;;;;;;;;;;4971967;28;20424;-76
2023/09/22 12:30:57;;;;;;;1.77;0.73;;;;;;;;;;4971856;28;20026;-78
2023/09/22 12:33:23;;;;;;;0.90;0.70;;;;;;;;;;4971775;28;20045;-77
2023/09/22 12:35:50;;;;;;;1.65;0.90;;;;;;;;;;4966067;28;20038;-76
2023/09/22 12:38:15;;;;;;;2.17;0.73;;;;;;;;;;4965318;28;20039;-76
2023/09/22 12:40:41;;;;;;;1.70;0.90;;;;;;;;;;4971833;28;20034;-76
2023/09/22 12:43:06;;;;;;;2.38;0.90;;;;;;;;;;4971241;28;20387;-76
2023/09/22 12:45:32;;;;;;;2.97;0.90;;;;;;;;;;4971304;28;20114;-77
2023/09/22 12:47:58;;;;;;;1.00;0.70;;;;;;;;;;4971647;28;20384;-76
2023/09/22 12:50:24;;;;;;;2.33;0.90;;;;;;;;;;4967095;28;20512;-77
2023/09/22 12:52:50;;;;;;;1.30;0.80;;;;;;;;;;4966987;28;20041;-77
2023/09/22 12:55:15;;;;;;;1.05;0.75;;;;;;;;;;4971234;28;20019;-78
2023/09/22 12:57:41;;;;;;;2.25;0.75;;;;;;;;;;4971366;28;20034;-77
2023/09/22 13:00:07;;;;;;;1.00;0.70;;;;;;;;;;4965481;28;20062;-77
2023/09/22 13:02:34;;;;;;;1.77;0.70;;;;;;;;;;4962951;28;20437;-78
2023/09/22 13:05:01;;;;;;;1.35;0.80;;;;;;;;;;4971471;28;20031;-77
2023/09/22 13:07:26;;;;;;;1.67;1.00;;;;;;;;;;4971012;28;20058;-77
2023/09/22 13:09:52;;;;;;;1.88;1.00;;;;;;;;;;4971548;28;20143;-77
2023/09/22 13:12:17;;;;;;;0.93;0.70;;;;;;;;;;4971046;28;20062;-77
2023/09/22 13:14:42;;;;;;;1.58;0.85;;;;;;;;;;4970758;28;20073;-77
2023/09/22 13:17:08;;;;;;;2.97;0.80;;;;;;;;;;4970851;28;20049;-76
2023/09/22 13:19:33;;;;;;;1.63;0.80;;;;;;;;;;4971084;28;20399;-77
2023/09/22 13:22:00;;;;;;;0.80;0.70;;;;;;;;;;4970990;28;20384;-77
2023/09/22 13:24:28;;;;;;;1.00;0.70;;;;;;;;;;4970832;28;20540;-75
2023/09/22 13:26:56;;;;;;;1.10;0.80;;;;;;;;;;4970560;28;20031;-76
2023/09/22 13:29:22;;;;;;;2.30;0.80;;;;;;;;;;4970861;28;20049;-76
2023/09/22 13:31:49;;;;;;;0.82;0.70;;;;;;;;;;4969681;28;20475;-75
2023/09/22 13:34:15;;;;;;;1.00;0.73;;;;;;;;;;4970627;28;20122;-76
2023/09/22 13:36:40;;;;;;;1.38;0.80;;;;;;;;;;4970948;28;20148;-76
2023/09/22 13:39:06;;;;;;;2.40;0.90;;;;;;;;;;4970432;28;20575;-77
2023/09/22 13:41:31;;;;;;;2.13;0.75;;;;;;;;;;4969853;28;20026;-77
2023/09/22 13:43:57;;;;;;;2.17;0.90;;;;;;;;;;4970773;28;20127;-76
2023/09/22 13:46:22;;;;;;;1.20;0.80;;;;;;;;;;4971048;28;20499;-75
2023/09/22 13:48:47;;;;;;;1.90;0.98;;;;;;;;;;4970609;28;20041;-76
2023/09/22 13:51:13;;;;;;;1.55;0.80;;;;;;;;;;4970327;28;20108;-76
2023/09/22 13:53:39;;;;;;;2.42;0.80;;;;;;;;;;4969603;28;20030;-75
2023/09/22 13:56:13;;;;;;;0.93;0.80;;;;;;;;;;4959243;28;20038;-74
2023/09/22 13:58:38;;;;;;;1.00;0.75;;;;;;;;;;4969648;28;20034;-74
2023/09/22 14:01:17;;;;;;;3.35;1.05;;;;;;;;;;4970598;28;20026;-76
2023/09/22 14:03:42;;;;;;;3.17;0.90;;;;;;;;;;4967944;28;20031;-78
2023/09/22 14:06:16;;;;;;;0.82;0.80;;;;;;;;;;4957028;28;20034;-76
2023/09/22 14:08:41;;;;;;;2.67;1.00;;;;;;;;;;4958491;28;20034;-77
2023/09/22 14:11:09;;;;;;;2.90;0.90;;;;;;;;;;4971783;28;20027;-76
2023/09/22 14:13:35;;;;;;;1.65;0.90;;;;;;;;;;4974616;28;20118;-75
2023/09/22 14:16:01;;;;;;;1.45;0.80;;;;;;;;;;4969922;28;20054;-75
2023/09/22 14:18:26;;;;;;;1.83;0.90;;;;;;;;;;4968381;28;20053;-77
2023/09/22 14:20:52;;;;;;;6.05;0.90;;;;;;;;;;4969898;28;20037;-76
2023/09/22 14:23:17;;;;;;;2.67;1.15;;;;;;;;;;4969484;28;20019;-76
2023/09/22 14:25:45;;;;;;;1.77;0.90;;;;;;;;;;4964015;28;20035;-75
2023/09/22 14:28:11;;;;;;;1.38;0.90;;;;;;;;;;4962489;28;20033;-77
2023/09/22 14:30:38;;;;;;;1.27;0.90;;;;;;;;;;4969853;28;20031;-78
2023/09/22 14:33:03;;;;;;;3.80;0.93;;;;;;;;;;4969919;28;20121;-78
2023/09/22 14:35:29;;;;;;;2.47;0.90;;;;;;;;;;4970154;28;20611;-78
2023/09/22 14:37:55;;;;;;;1.67;0.88;;;;;;;;;;4970935;28;20019;-78
2023/09/22 14:40:21;;;;;;;2.30;0.90;;;;;;;;;;4969788;28;20034;-78
2023/09/22 14:42:47;;;;;;;1.95;0.82;;;;;;;;;;4969455;28;20035;-77